createdAt,value
2023-11-23T00:01:44.918Z,5.1
2023-11-23T00:06:43.795Z,2.5
2023-11-23T00:11:42.872Z,3.7
2023-11-23T00:16:41.944Z,3.6
2023-11-23T00:21:40.909Z,3.8
2023-11-23T00:26:40.049Z,5.7
2023-11-23T00:31:39.072Z,6.9
2023-11-23T00:36:38.050Z,9
2023-11-23T00:41:37.206Z,8.9
2023-11-23T00:46:36.179Z,4.8
2023-11-23T00:51:35.217Z,6.1
2023-11-23T00:56:34.293Z,4.7
2023-11-23T01:01:33.458Z,5.4
2023-11-23T01:06:32.333Z,3.4
2023-11-23T01:11:31.441Z,4.1
2023-11-23T01:16:30.523Z,3.1
2023-11-23T01:21:29.537Z,3.6
2023-11-23T01:26:28.541Z,3.3
2023-11-23T01:31:27.585Z,4.2
2023-11-23T01:36:26.604Z,3.1
2023-11-23T01:41:25.689Z,3.9
2023-11-23T01:46:24.743Z,3
2023-11-23T01:51:23.857Z,3.2
2023-11-23T01:56:22.816Z,6.3
2023-11-23T02:01:21.824Z,3.4
2023-11-23T02:06:20.902Z,4
2023-11-23T02:11:19.976Z,2.5
2023-11-23T02:16:19.015Z,3.3
2023-11-23T02:21:17.997Z,3.5
2023-11-23T02:26:17.086Z,2.8
2023-11-23T02:31:16.110Z,3.6
2023-11-23T02:36:15.177Z,2.8
2023-11-23T02:41:14.134Z,5
2023-11-23T02:46:13.191Z,4.2
2023-11-23T02:51:12.298Z,4.7
2023-11-23T02:56:11.261Z,5.2
2023-11-23T03:01:10.339Z,5.4
2023-11-23T03:06:09.398Z,3.6
2023-11-23T03:11:08.380Z,4.4
2023-11-23T03:16:07.391Z,4.8
2023-11-23T03:21:06.514Z,4.4
2023-11-23T03:26:05.522Z,6.2
2023-11-23T03:31:04.553Z,6.6
2023-11-23T03:36:03.577Z,5.2
2023-11-23T03:41:02.674Z,5.7
2023-11-23T03:46:01.746Z,3.1
2023-11-23T03:51:00.814Z,6.1
2023-11-23T03:55:59.829Z,5.5
2023-11-23T04:00:49.749Z,5.5
2023-11-23T04:01:42.308Z,4.1
2023-11-23T04:05:57.863Z,4.5
2023-11-23T04:10:56.892Z,4.1
2023-11-23T04:15:55.958Z,3.7
2023-11-23T04:20:55.021Z,4.1
2023-11-23T04:25:54.081Z,3.9
2023-11-23T04:30:53.090Z,4.4
2023-11-23T04:35:52.249Z,5.8
2023-11-23T04:40:51.286Z,6.5
2023-11-23T04:45:50.320Z,6.5
2023-11-23T04:50:49.359Z,4.6
2023-11-23T04:55:48.352Z,4.6
2023-11-23T05:00:47.448Z,5.7
2023-11-23T05:05:46.486Z,4.7
2023-11-23T05:10:45.503Z,5.5
2023-11-23T05:15:44.576Z,6.4
2023-11-23T05:20:43.549Z,4.8
2023-11-23T05:25:42.628Z,6.3
2023-11-23T05:30:41.682Z,6.3
2023-11-23T05:35:40.683Z,6.6
2023-11-23T05:40:39.747Z,8.1
2023-11-23T05:45:38.775Z,6.4
2023-11-23T05:50:37.832Z,7.2
2023-11-23T05:55:36.906Z,11.6
2023-11-23T06:00:35.923Z,9.3
2023-11-23T06:05:35.001Z,19.7
2023-11-23T06:10:33.957Z,14.6
2023-11-23T06:15:33.070Z,12.3
2023-11-23T06:20:32.064Z,9.8
2023-11-23T06:25:31.089Z,11
2023-11-23T06:30:30.208Z,12
2023-11-23T06:35:29.186Z,13.2
2023-11-23T06:40:28.285Z,8.6
2023-11-23T06:45:27.393Z,12.3
2023-11-23T06:50:26.466Z,11.5
2023-11-23T06:55:25.446Z,11.2
2023-11-23T07:00:24.818Z,12.3
2023-11-23T07:05:23.578Z,9.2
2023-11-23T07:10:23.457Z,4.2
2023-11-23T07:15:21.789Z,7.7
2023-11-23T07:20:20.722Z,9
2023-11-23T07:25:19.797Z,5.2
2023-11-23T07:30:18.897Z,6.6
2023-11-23T07:35:17.916Z,5.6
2023-11-23T07:40:16.961Z,5.3
2023-11-23T07:45:16.027Z,5.9
2023-11-23T07:50:15.058Z,4.4
2023-11-23T07:55:14.166Z,4.8
2023-11-23T08:00:13.286Z,11.8
2023-11-23T08:05:12.369Z,8.5
2023-11-23T08:10:11.381Z,5.3
2023-11-23T08:15:10.542Z,2.5
2023-11-23T08:20:09.618Z,3.9
2023-11-23T08:25:08.665Z,6.3
2023-11-23T08:30:07.819Z,6.2
2023-11-23T08:35:06.893Z,6.1
2023-11-23T08:40:05.900Z,6.1
2023-11-23T08:45:05.071Z,3.4
2023-11-23T08:50:04.102Z,4.3
2023-11-23T08:55:03.218Z,6.5
2023-11-23T09:00:02.391Z,5.7
2023-11-23T09:05:01.535Z,4.6
2023-11-23T09:10:00.560Z,5.3
2023-11-23T09:14:59.687Z,5.9
2023-11-23T09:19:58.866Z,3.8
2023-11-23T09:24:57.863Z,3.9
2023-11-23T09:29:57.036Z,3.8
2023-11-23T09:34:56.181Z,5.6
2023-11-23T09:39:55.279Z,12.4
2023-11-23T09:44:54.396Z,8.5
2023-11-23T09:49:53.502Z,6.8
2023-11-23T09:54:52.713Z,6.4
2023-11-23T09:59:51.802Z,5.9
2023-11-23T10:04:51.026Z,5.8
2023-11-23T10:09:50.233Z,3.3
2023-11-23T10:14:49.351Z,4.5
2023-11-23T10:19:48.533Z,5.2
2023-11-23T10:24:47.689Z,4.2
2023-11-23T10:29:46.895Z,5.3
2023-11-23T10:34:46.134Z,4.5
2023-11-23T10:39:45.253Z,4.1
2023-11-23T10:44:44.449Z,6.9
2023-11-23T10:49:43.699Z,8.5
2023-11-23T10:54:42.776Z,8.6
2023-11-23T10:59:41.958Z,6.6
2023-11-23T11:04:41.246Z,8.9
2023-11-23T11:09:40.495Z,12.4
2023-11-23T11:14:39.605Z,11.4
2023-11-23T11:19:38.796Z,12.7
2023-11-23T11:24:38.036Z,11.8
2023-11-23T11:29:37.173Z,18.3
2023-11-23T11:34:36.394Z,3.6
2023-11-23T11:39:35.677Z,7.7
2023-11-23T11:44:35.078Z,6.6
2023-11-23T11:49:34.077Z,4.7
2023-11-23T11:54:33.343Z,3.9
2023-11-23T11:59:32.565Z,4.8
2023-11-23T12:04:31.900Z,5.7
2023-11-23T12:09:38.506Z,11.2
2023-11-23T12:14:30.174Z,14.4
2023-11-23T12:19:29.419Z,7.9
2023-11-23T12:24:28.680Z,5.4
2023-11-23T12:29:27.816Z,8.2
2023-11-23T12:34:27.032Z,5.8
2023-11-23T12:39:26.295Z,8.9
2023-11-23T12:44:25.452Z,6.7
2023-11-23T12:49:24.695Z,9.6
2023-11-23T12:54:23.879Z,5.8
2023-11-23T12:59:23.034Z,6
2023-11-23T13:04:22.388Z,5.7
2023-11-23T13:09:21.496Z,13.7
2023-11-23T13:14:20.694Z,7.9
2023-11-23T13:19:29.283Z,8.1
2023-11-23T13:24:19.144Z,5.5
2023-11-23T13:29:19.632Z,6.1
2023-11-23T13:34:17.554Z,5.7
2023-11-23T13:39:16.779Z,7.2
2023-11-23T13:44:15.976Z,4.8
2023-11-23T13:49:15.171Z,5.4
2023-11-23T13:54:14.449Z,5.2
2023-11-23T13:59:13.630Z,6.5
2023-11-23T14:04:12.875Z,4.2
2023-11-23T14:09:12.085Z,5.8
2023-11-23T14:14:11.295Z,5.4
2023-11-23T14:19:10.546Z,5.1
2023-11-23T14:24:09.842Z,7.1
2023-11-23T14:29:09.005Z,8.8
2023-11-23T14:34:08.321Z,6.8
2023-11-23T14:39:07.497Z,6.7
2023-11-23T14:44:06.739Z,6.6
2023-11-23T14:49:05.908Z,8.6
2023-11-23T14:54:10.557Z,14.3
2023-11-23T14:59:04.382Z,9.2
2023-11-23T15:04:03.663Z,10.3
2023-11-23T15:09:02.783Z,9.9
2023-11-23T15:14:01.942Z,11.7
2023-11-23T15:19:01.204Z,11.4
2023-11-23T15:24:00.299Z,14.4
2023-11-23T15:28:59.527Z,11.2
2023-11-23T15:33:58.717Z,10.8
2023-11-23T15:38:57.836Z,7.5
2023-11-23T15:43:57.021Z,8.4
2023-11-23T15:48:56.238Z,9.4
2023-11-23T15:53:55.348Z,10.3
2023-11-23T15:58:54.476Z,13.2
2023-11-23T16:03:53.669Z,13.3
2023-11-23T16:08:55.110Z,7.9
2023-11-23T16:13:51.980Z,9.8
2023-11-23T16:18:51.230Z,10
2023-11-23T16:23:50.340Z,9.8
2023-11-23T16:28:49.467Z,8.7
2023-11-23T16:33:48.646Z,9.2
2023-11-23T16:38:47.755Z,12.4
2023-11-23T16:43:46.896Z,10.3
2023-11-23T16:48:46.140Z,9.9
2023-11-23T16:53:45.137Z,10.1
2023-11-23T16:58:44.284Z,9.5
2023-11-23T17:03:43.624Z,10.1
2023-11-23T17:08:42.609Z,9.4
2023-11-23T17:13:41.814Z,9.8
2023-11-23T17:18:40.960Z,10.9
2023-11-23T17:23:40.100Z,9.8
2023-11-23T17:28:39.238Z,11.1
2023-11-23T17:33:38.401Z,10.1
2023-11-23T17:38:37.483Z,12.3
2023-11-23T17:43:36.617Z,11
2023-11-23T17:48:35.862Z,11.5
2023-11-23T17:53:34.909Z,11.3
2023-11-23T17:58:34.046Z,11
2023-11-23T18:03:33.320Z,10.7
2023-11-23T18:08:32.369Z,9.8
2023-11-23T18:13:31.495Z,9.7
2023-11-23T18:18:30.698Z,9.1
2023-11-23T18:23:29.692Z,8.3
2023-11-23T18:28:28.909Z,10
2023-11-23T18:33:28.056Z,11
2023-11-23T18:38:27.142Z,9.3
2023-11-23T18:43:26.227Z,10.1
2023-11-23T18:48:25.425Z,7.1
2023-11-23T18:53:24.432Z,7.3
2023-11-23T18:58:23.564Z,8.1
2023-11-23T19:03:22.860Z,6.9
2023-11-23T19:08:21.935Z,6.4
2023-11-23T19:13:21.027Z,8.8
2023-11-23T19:18:20.151Z,7.2
2023-11-23T19:23:19.345Z,7.9
2023-11-23T19:28:18.443Z,7.2
2023-11-23T19:33:17.686Z,7.2
2023-11-23T19:38:16.697Z,8
2023-11-23T19:43:16.624Z,10.3
2023-11-23T19:48:15.096Z,8.7
2023-11-23T19:53:14.104Z,8
2023-11-23T19:58:13.222Z,7.7
2023-11-23T20:03:12.376Z,9.2
2023-11-23T20:08:11.444Z,8.7
2023-11-23T20:13:10.579Z,8.1
2023-11-23T20:18:09.769Z,8.2
2023-11-23T20:23:08.760Z,6.7
2023-11-23T20:28:07.911Z,10.8
2023-11-23T20:33:07.060Z,15.1
2023-11-23T20:38:06.110Z,8.2
2023-11-23T20:43:05.259Z,10.9
2023-11-23T20:48:04.410Z,11.4
2023-11-23T20:53:03.408Z,11.3
2023-11-23T20:58:02.499Z,9.5
2023-11-23T21:03:01.781Z,9
2023-11-23T21:08:00.714Z,10
2023-11-23T21:12:59.879Z,12.7
2023-11-23T21:17:58.953Z,13.6
2023-11-23T21:22:58.038Z,13.5
2023-11-23T21:27:57.188Z,13.3
2023-11-23T21:32:56.334Z,12.7
2023-11-23T21:37:55.384Z,10.3
2023-11-23T21:42:54.487Z,9.1
2023-11-23T21:47:53.564Z,10.9
2023-11-23T21:52:54.497Z,9.8
2023-11-23T21:57:51.730Z,10.7
2023-11-23T22:02:50.957Z,9.9
2023-11-23T22:07:49.919Z,7.7
2023-11-23T22:12:51.052Z,8.3
2023-11-23T22:17:48.145Z,12.4
2023-11-23T22:22:47.203Z,9.8
2023-11-23T22:27:46.343Z,9.9
2023-11-23T22:32:45.446Z,10.2
2023-11-23T22:37:44.447Z,7.7
2023-11-23T22:42:43.554Z,7.5
2023-11-23T22:47:42.662Z,7
2023-11-23T22:52:41.695Z,7.3
2023-11-23T22:57:40.821Z,9.3
2023-11-23T23:02:39.987Z,8.1
2023-11-23T23:07:39.057Z,8.8
2023-11-23T23:12:38.169Z,8.4
2023-11-23T23:17:37.189Z,10.2
2023-11-23T23:22:36.235Z,7.3
2023-11-23T23:27:35.397Z,6.8
2023-11-23T23:32:34.416Z,6.8
2023-11-23T23:37:33.518Z,7.3
2023-11-23T23:42:32.654Z,8.1
2023-11-23T23:47:31.769Z,9.1
2023-11-23T23:52:30.829Z,9.2
2023-11-23T23:57:29.940Z,8
